createdAt,value
2023-05-14T00:01:16.957Z,14.26
2023-05-14T00:06:18.651Z,14.32
2023-05-14T00:11:20.962Z,14.20
2023-05-14T00:16:22.653Z,14.17
2023-05-14T00:21:24.249Z,14.11
2023-05-14T00:26:25.938Z,14.02
2023-05-14T00:31:27.630Z,13.95
2023-05-14T00:36:29.301Z,13.95
2023-05-14T00:41:31.114Z,13.90
2023-05-14T00:46:32.818Z,13.74
2023-05-14T00:51:34.632Z,13.67
2023-05-14T00:56:36.413Z,13.57
2023-05-14T01:01:38.229Z,13.62
2023-05-14T01:06:45.246Z,13.63
2023-05-14T01:12:00.968Z,13.55
2023-05-14T01:17:04.729Z,13.49
2023-05-14T01:22:06.880Z,13.49
2023-05-14T01:27:34.559Z,13.43
2023-05-14T01:32:38.030Z,13.46
2023-05-14T01:37:41.839Z,13.35
2023-05-14T01:42:47.508Z,13.26
2023-05-14T01:47:49.945Z,13.20
2023-05-14T01:52:56.748Z,13.09
2023-05-14T01:57:58.688Z,13.13
2023-05-14T02:03:00.509Z,12.90
2023-05-14T02:08:02.214Z,12.98
2023-05-14T02:13:04.133Z,13.06
2023-05-14T02:18:05.958Z,12.87
2023-05-14T02:23:07.718Z,12.90
2023-05-14T02:28:09.329Z,12.87
2023-05-14T02:33:11.019Z,12.79
2023-05-14T02:38:12.686Z,12.78
2023-05-14T02:43:15.804Z,12.75
2023-05-14T02:48:17.434Z,12.84
2023-05-14T02:53:19.109Z,12.73
2023-05-14T02:58:20.786Z,12.72
2023-05-14T03:03:33.637Z,12.77
2023-05-14T03:08:35.825Z,12.80
2023-05-14T03:13:37.459Z,12.74
2023-05-14T03:18:39.413Z,12.71
2023-05-14T03:23:43.078Z,12.65
2023-05-14T03:28:48.594Z,12.42
2023-05-14T03:33:50.286Z,12.43
2023-05-14T03:38:51.918Z,12.47
2023-05-14T03:43:53.570Z,12.58
2023-05-14T03:48:55.225Z,12.53
2023-05-14T03:53:58.201Z,12.53
2023-05-14T03:58:59.822Z,12.53
2023-05-14T04:04:01.572Z,12.51
2023-05-14T04:09:03.741Z,12.56
2023-05-14T04:14:05.628Z,12.47
2023-05-14T04:19:07.393Z,12.50
2023-05-14T04:24:09.213Z,12.49
2023-05-14T04:29:10.876Z,12.57
2023-05-14T04:34:12.497Z,12.44
2023-05-14T04:39:16.348Z,12.45
2023-05-14T04:44:17.935Z,12.52
2023-05-14T04:49:20.888Z,12.53
2023-05-14T04:54:22.746Z,12.55
2023-05-14T04:59:24.376Z,12.57
2023-05-14T05:04:26.426Z,12.65
2023-05-14T05:09:30.405Z,12.45
2023-05-14T05:14:32.109Z,12.63
2023-05-14T05:19:43.237Z,12.70
2023-05-14T05:24:50.108Z,12.57
2023-05-14T05:29:51.870Z,12.68
2023-05-14T05:34:53.558Z,12.75
2023-05-14T05:39:57.381Z,12.84
2023-05-14T05:44:59.055Z,13.04
2023-05-14T05:50:00.661Z,13.10
2023-05-14T05:55:02.318Z,12.88
2023-05-14T06:00:13.396Z,13.06
2023-05-14T06:05:16.854Z,13.13
2023-05-14T06:10:19.078Z,13.09
2023-05-14T06:15:20.910Z,13.07
2023-05-14T06:20:22.981Z,13.13
2023-05-14T06:25:24.856Z,13.15
2023-05-14T06:30:26.643Z,13.17
2023-05-14T06:35:28.486Z,13.11
2023-05-14T06:40:30.296Z,13.15
2023-05-14T06:45:33.306Z,13.27
2023-05-14T06:50:35.044Z,13.37
2023-05-14T06:55:36.779Z,13.46
2023-05-14T07:00:38.409Z,13.48
2023-05-14T07:05:41.307Z,13.70
2023-05-14T07:10:42.933Z,13.82
2023-05-14T07:15:44.942Z,13.97
2023-05-14T07:20:47.753Z,14.12
2023-05-14T07:25:49.491Z,14.02
2023-05-14T07:30:51.098Z,14.29
2023-05-14T07:35:54.107Z,14.50
2023-05-14T07:40:56.233Z,14.59
2023-05-14T07:46:00.203Z,14.53
2023-05-14T07:51:03.721Z,14.85
2023-05-14T07:56:05.989Z,15.14
2023-05-14T08:01:09.194Z,15.50
2023-05-14T08:06:10.893Z,15.54
2023-05-14T08:11:12.662Z,15.58
2023-05-14T08:16:14.360Z,15.83
2023-05-14T08:21:17.914Z,15.79
2023-05-14T08:26:19.557Z,16.07
2023-05-14T08:31:21.290Z,16.26
2023-05-14T08:36:22.932Z,16.37
2023-05-14T08:41:25.535Z,16.47
2023-05-14T08:46:30.614Z,16.67
2023-05-14T08:51:33.519Z,17.04
2023-05-14T08:56:35.989Z,17.19
2023-05-14T09:01:39.729Z,17.34
2023-05-14T09:06:43.516Z,17.74
2023-05-14T09:11:52.646Z,17.81
2023-05-14T09:16:54.851Z,17.94
2023-05-14T09:21:59.220Z,18.06
2023-05-14T09:27:09.164Z,18.22
2023-05-14T09:32:11.305Z,18.36
2023-05-14T09:37:13.798Z,18.56
2023-05-14T09:42:16.520Z,18.74
2023-05-14T09:47:18.360Z,18.82
2023-05-14T09:52:20.304Z,19.15
2023-05-14T09:57:22.092Z,19.05
2023-05-14T10:02:36.230Z,19.15
2023-05-14T10:07:48.135Z,19.31
2023-05-14T10:13:06.799Z,19.39
2023-05-14T10:18:18.218Z,19.38
2023-05-14T10:23:21.732Z,19.23
2023-05-14T10:28:23.610Z,19.18
2023-05-14T10:33:25.251Z,19.21
2023-05-14T10:38:29.133Z,19.35
2023-05-14T10:43:36.347Z,19.50
2023-05-14T10:48:41.870Z,19.62
2023-05-14T10:53:46.354Z,19.79
2023-05-14T10:58:50.029Z,20.01
2023-05-14T11:03:53.392Z,20.27
2023-05-14T11:08:55.492Z,20.43
2023-05-14T11:13:57.454Z,20.52
2023-05-14T11:19:04.212Z,20.50
2023-05-14T11:24:07.461Z,20.80
2023-05-14T11:29:10.504Z,20.85
2023-05-14T11:34:12.259Z,20.45
2023-05-14T11:39:19.713Z,20.68
2023-05-14T11:44:22.381Z,20.68
2023-05-14T11:49:26.911Z,20.73
2023-05-14T11:54:29.966Z,20.77
2023-05-14T11:59:32.630Z,20.68
2023-05-14T12:04:34.458Z,20.91
2023-05-14T12:09:43.013Z,20.79
2023-05-14T12:14:47.197Z,20.80
2023-05-14T12:19:51.178Z,20.79
2023-05-14T12:24:59.797Z,20.80
2023-05-14T12:30:20.548Z,20.60
2023-05-14T12:35:23.381Z,20.61
2023-05-14T12:40:25.513Z,20.58
2023-05-14T12:45:27.437Z,20.83
2023-05-14T12:50:29.445Z,20.84
2023-05-14T12:55:34.518Z,20.92
2023-05-14T13:00:36.324Z,21.04
2023-05-14T13:05:38.005Z,20.71
2023-05-14T13:10:39.595Z,20.67
2023-05-14T13:15:41.457Z,20.67
2023-05-14T13:20:43.396Z,20.33
2023-05-14T13:25:49.177Z,20.42
2023-05-14T13:31:11.104Z,20.35
2023-05-14T13:36:16.917Z,20.09
2023-05-14T13:41:18.682Z,19.99
2023-05-14T13:46:20.426Z,19.97
2023-05-14T13:51:25.239Z,19.78
2023-05-14T13:56:26.881Z,19.66
2023-05-14T14:01:30.760Z,19.66
2023-05-14T14:06:33.254Z,19.48
2023-05-14T14:11:34.990Z,19.44
2023-05-14T14:16:36.695Z,19.09
2023-05-14T14:21:39.796Z,19.12
2023-05-14T14:26:44.000Z,18.66
2023-05-14T14:31:47.428Z,18.90
2023-05-14T14:36:49.072Z,18.71
2023-05-14T14:41:51.391Z,18.43
2023-05-14T14:46:52.950Z,18.39
2023-05-14T14:51:54.792Z,18.44
2023-05-14T14:56:57.460Z,18.57
2023-05-14T15:01:59.129Z,18.25
2023-05-14T15:07:01.603Z,17.97
2023-05-14T15:12:03.326Z,17.68
2023-05-14T15:17:05.164Z,17.45
2023-05-14T15:22:06.973Z,17.82
2023-05-14T15:27:08.592Z,17.43
2023-05-14T15:32:10.407Z,17.48
2023-05-14T15:37:12.105Z,17.14
2023-05-14T15:42:13.801Z,17.23
2023-05-14T15:47:16.691Z,17.41
2023-05-14T15:52:18.434Z,17.35
2023-05-14T15:57:20.269Z,17.04
2023-05-14T16:02:21.859Z,17.07
2023-05-14T16:07:23.498Z,16.59
2023-05-14T16:12:25.100Z,16.42
2023-05-14T16:17:28.178Z,16.11
2023-05-14T16:22:31.934Z,16.31
2023-05-14T16:27:34.286Z,16.42
2023-05-14T16:32:36.563Z,16.63
2023-05-14T16:37:38.170Z,16.34
2023-05-14T16:42:39.842Z,16.31
2023-05-14T16:47:41.627Z,16.37
2023-05-14T16:52:43.344Z,15.97
2023-05-14T16:57:46.538Z,15.88
2023-05-14T17:02:49.840Z,15.75
2023-05-14T17:07:52.139Z,15.62
2023-05-14T17:12:53.839Z,15.91
2023-05-14T17:17:55.629Z,15.83
2023-05-14T17:22:57.235Z,15.88
2023-05-14T17:27:59.101Z,15.91
2023-05-14T17:33:00.868Z,15.73
2023-05-14T17:38:04.239Z,15.66
2023-05-14T17:43:05.905Z,14.77
2023-05-14T17:48:07.677Z,15.01
2023-05-14T17:53:09.415Z,14.80
2023-05-14T17:58:16.506Z,14.83
2023-05-14T18:03:20.410Z,14.57
2023-05-14T18:08:22.346Z,14.47
2023-05-14T18:13:24.032Z,14.45
2023-05-14T18:18:25.924Z,14.34
2023-05-14T18:23:27.600Z,14.26
2023-05-14T18:28:29.332Z,14.29
2023-05-14T18:33:33.129Z,14.32
2023-05-14T18:38:35.414Z,14.20
2023-05-14T18:43:37.049Z,14.20
2023-05-14T18:48:38.651Z,14.06
2023-05-14T18:53:40.291Z,13.88
2023-05-14T18:58:42.116Z,13.94
2023-05-14T19:03:46.192Z,13.76
2023-05-14T19:08:47.953Z,13.66
2023-05-14T19:13:49.620Z,13.84
2023-05-14T19:18:51.369Z,13.82
2023-05-14T19:23:53.175Z,13.73
2023-05-14T19:28:58.513Z,13.58
2023-05-14T19:34:00.651Z,13.69
2023-05-14T19:39:02.463Z,13.66
2023-05-14T19:44:04.159Z,13.65
2023-05-14T19:49:05.838Z,13.50
2023-05-14T19:54:07.482Z,13.71
2023-05-14T19:59:09.202Z,13.72
2023-05-14T20:04:10.839Z,13.71
2023-05-14T20:09:13.714Z,13.55
2023-05-14T20:14:16.638Z,13.60
2023-05-14T20:19:22.037Z,13.50
2023-05-14T20:24:23.913Z,13.50
2023-05-14T20:29:25.765Z,13.44
2023-05-14T20:34:27.411Z,13.43
2023-05-14T20:39:29.013Z,13.46
2023-05-14T20:44:30.706Z,13.38
2023-05-14T20:49:32.360Z,13.27
2023-05-14T20:54:34.733Z,13.25
2023-05-14T20:59:36.366Z,13.25
2023-05-14T21:04:38.268Z,13.25
2023-05-14T21:09:39.969Z,13.25
2023-05-14T21:14:42.067Z,13.22
2023-05-14T21:19:43.765Z,13.20
2023-05-14T21:24:46.577Z,13.18
2023-05-14T21:29:48.216Z,13.09
2023-05-14T21:34:49.868Z,13.09
2023-05-14T21:39:51.553Z,13.09
2023-05-14T21:44:53.162Z,13.09
2023-05-14T21:49:54.800Z,13.06
2023-05-14T21:54:56.583Z,12.99
2023-05-14T22:00:07.966Z,12.88
2023-05-14T22:05:09.781Z,12.84
2023-05-14T22:10:16.578Z,12.67
2023-05-14T22:15:18.198Z,12.66
2023-05-14T22:20:19.842Z,12.61
2023-05-14T22:25:21.453Z,12.61
2023-05-14T22:30:24.030Z,12.53
2023-05-14T22:35:25.811Z,12.59
2023-05-14T22:40:27.731Z,12.62
2023-05-14T22:45:29.402Z,12.64
2023-05-14T22:50:31.035Z,12.50
2023-05-14T22:55:35.638Z,12.45
2023-05-14T23:00:37.427Z,12.45
2023-05-14T23:05:39.136Z,12.47
2023-05-14T23:10:40.775Z,12.36
2023-05-14T23:15:44.112Z,12.33
2023-05-14T23:20:48.281Z,12.31
2023-05-14T23:25:50.683Z,12.28
2023-05-14T23:30:52.304Z,12.25
2023-05-14T23:35:53.998Z,12.23
2023-05-14T23:40:55.683Z,12.18
2023-05-14T23:45:57.580Z,12.16
2023-05-14T23:50:59.278Z,12.15
2023-05-14T23:56:00.991Z,12.01
